createdAt,value
2023-01-01T00:00:38.851Z,66.20
2023-01-01T00:06:20.179Z,65.79
2023-01-01T00:11:41.310Z,65.98
2023-01-01T00:17:02.145Z,65.72
2023-01-01T00:28:04.002Z,65.51
2023-01-01T00:33:24.594Z,65.50
2023-01-01T00:38:46.083Z,65.36
2023-01-01T00:44:07.398Z,65.37
2023-01-01T00:49:28.252Z,65.30
2023-01-01T00:54:48.919Z,65.21
2023-01-01T01:00:10.595Z,65.01
2023-01-01T01:05:32.949Z,64.95
2023-01-01T01:10:54.440Z,65.09
2023-01-01T01:16:30.610Z,64.88
2023-01-01T01:21:52.093Z,64.53
2023-01-01T01:27:12.757Z,64.54
2023-01-01T01:32:33.438Z,64.67
2023-01-01T01:37:54.108Z,64.57
2023-01-01T01:43:33.100Z,64.80
2023-01-01T01:48:56.754Z,64.36
2023-01-01T01:54:22.670Z,64.37
2023-01-01T01:59:48.761Z,64.08
2023-01-01T02:05:09.755Z,64.03
2023-01-01T02:10:30.897Z,64.16
2023-01-01T02:15:53.451Z,63.96
2023-01-01T02:21:53.118Z,63.93
2023-01-01T02:27:35.563Z,63.82
2023-01-01T02:33:05.493Z,63.97
2023-01-01T02:38:37.036Z,64.08
2023-01-01T02:49:18.128Z,63.79
2023-01-01T02:55:12.125Z,64.01
2023-01-01T03:00:35.400Z,63.75
2023-01-01T03:06:24.203Z,63.88
2023-01-01T03:12:20.477Z,64.00
2023-01-01T03:18:26.105Z,63.75
2023-01-01T03:23:54.689Z,63.68
2023-01-01T03:29:16.521Z,63.74
2023-01-01T03:34:47.261Z,63.66
2023-01-01T03:40:09.438Z,63.56
2023-01-01T03:45:35.462Z,63.60
2023-01-01T03:51:09.104Z,63.54
2023-01-01T03:56:39.432Z,63.52
2023-01-01T04:02:04.274Z,63.40
2023-01-01T04:07:25.508Z,63.29
2023-01-01T04:12:51.954Z,63.22
2023-01-01T04:18:12.972Z,63.26
2023-01-01T04:23:33.746Z,63.25
2023-01-01T04:28:54.375Z,63.28
2023-01-01T04:34:15.563Z,63.29
2023-01-01T04:39:36.800Z,63.10
2023-01-01T04:44:57.484Z,63.12
2023-01-01T04:50:18.226Z,63.20
2023-01-01T04:55:38.815Z,63.09
2023-01-01T05:00:59.824Z,62.86
2023-01-01T05:06:21.289Z,62.70
2023-01-01T05:11:41.991Z,63.06
2023-01-01T05:17:02.441Z,62.99
2023-01-01T05:22:23.182Z,63.14
2023-01-01T05:27:43.795Z,63.30
2023-01-01T05:33:04.520Z,63.09
2023-01-01T05:38:25.213Z,63.22
2023-01-01T05:43:46.302Z,63.02
2023-01-01T05:49:10.504Z,63.12
2023-01-01T05:54:31.483Z,63.08
2023-01-01T05:59:52.312Z,63.19
2023-01-01T06:05:12.845Z,63.25
2023-01-01T06:10:33.880Z,63.09
2023-01-01T06:15:56.652Z,63.21
2023-01-01T06:21:21.411Z,63.23
2023-01-01T06:26:42.233Z,63.03
2023-01-01T06:32:03.076Z,63.02
2023-01-01T06:37:24.177Z,63.04
2023-01-01T06:42:45.019Z,62.86
2023-01-01T06:48:05.987Z,63.22
2023-01-01T06:53:27.186Z,63.23
2023-01-01T06:58:47.873Z,63.01
2023-01-01T07:04:12.712Z,63.13
2023-01-01T07:09:33.438Z,63.20
2023-01-01T07:14:54.144Z,63.08
2023-01-01T07:20:14.780Z,63.17
2023-01-01T07:25:35.401Z,63.13
2023-01-01T07:30:56.204Z,63.30
2023-01-01T07:36:17.204Z,63.11
2023-01-01T07:41:38.310Z,63.36
2023-01-01T07:47:04.016Z,63.17
2023-01-01T07:52:25.093Z,63.20
2023-01-01T07:57:47.271Z,63.37
2023-01-01T08:03:10.483Z,63.36
2023-01-01T08:08:31.593Z,63.13
2023-01-01T08:13:52.258Z,63.29
2023-01-01T08:19:14.135Z,63.29
2023-01-01T08:24:35.290Z,63.49
2023-01-01T08:29:55.994Z,63.45
2023-01-01T08:35:16.878Z,63.41
2023-01-01T08:40:37.766Z,63.34
2023-01-01T08:45:58.936Z,63.23
2023-01-01T08:51:19.569Z,63.44
2023-01-01T08:56:40.838Z,63.45
2023-01-01T09:02:01.612Z,63.35
2023-01-01T09:07:22.633Z,63.36
2023-01-01T09:12:43.395Z,63.31
2023-01-01T09:18:04.441Z,62.96
2023-01-01T09:23:25.444Z,62.82
2023-01-01T09:28:46.178Z,62.52
2023-01-01T09:34:08.346Z,62.58
2023-01-01T09:39:30.358Z,62.55
2023-01-01T09:45:11.925Z,62.33
2023-01-01T09:50:40.156Z,62.24
2023-01-01T09:56:03.480Z,62.01
2023-01-01T10:01:43.123Z,61.79
2023-01-01T10:07:29.717Z,62.09
2023-01-01T10:13:06.542Z,61.43
2023-01-01T10:18:33.567Z,61.54
2023-01-01T10:24:32.010Z,61.51
2023-01-01T10:29:58.036Z,61.40
2023-01-01T10:35:31.477Z,61.07
2023-01-01T10:40:55.698Z,61.20
2023-01-01T10:46:27.551Z,60.83
2023-01-01T10:51:54.863Z,61.03
2023-01-01T10:57:30.420Z,61.08
2023-01-01T11:03:20.553Z,60.74
2023-01-01T11:08:49.060Z,60.65
2023-01-01T11:14:29.833Z,60.78
2023-01-01T11:19:55.520Z,60.58
2023-01-01T11:25:22.722Z,60.39
2023-01-01T11:31:00.438Z,60.48
2023-01-01T11:36:33.023Z,60.24
2023-01-01T11:41:56.294Z,60.51
2023-01-01T11:47:34.458Z,60.57
2023-01-01T11:52:58.747Z,60.04
2023-01-01T11:58:52.488Z,59.96
2023-01-01T12:04:19.887Z,60.05
2023-01-01T12:09:57.656Z,59.83
2023-01-01T12:15:35.445Z,59.99
2023-01-01T12:21:05.082Z,59.83
2023-01-01T12:26:32.538Z,59.66
2023-01-01T12:32:23.041Z,59.72
2023-01-01T12:38:21.042Z,59.95
2023-01-01T12:44:06.468Z,59.31
2023-01-01T12:49:40.307Z,59.40
2023-01-01T12:55:39.616Z,59.45
2023-01-01T13:01:13.015Z,59.32
2023-01-01T13:06:49.996Z,59.37
2023-01-01T13:12:25.400Z,59.33
2023-01-01T13:17:53.210Z,59.54
2023-01-01T13:23:29.225Z,59.60
2023-01-01T13:28:58.899Z,59.50
2023-01-01T13:34:35.730Z,59.16
2023-01-01T13:39:58.170Z,59.04
2023-01-01T13:46:10.567Z,59.31
2023-01-01T13:52:07.551Z,58.89
2023-01-01T13:57:56.847Z,59.18
2023-01-01T14:03:18.871Z,59.11
2023-01-01T14:08:40.433Z,59.00
2023-01-01T14:14:01.519Z,59.35
2023-01-01T14:19:24.014Z,59.16
2023-01-01T14:24:47.816Z,58.90
2023-01-01T14:30:16.214Z,58.92
2023-01-01T14:35:37.200Z,58.77
2023-01-01T14:41:14.245Z,59.08
2023-01-01T14:46:40.337Z,58.62
2023-01-01T14:52:05.942Z,58.96
2023-01-01T14:57:33.077Z,59.16
2023-01-01T15:02:54.102Z,59.02
2023-01-01T15:08:21.867Z,58.94
2023-01-01T15:13:53.568Z,58.93
2023-01-01T15:19:18.325Z,58.82
2023-01-01T15:24:40.085Z,58.84
2023-01-01T15:30:07.067Z,59.08
2023-01-01T15:35:32.730Z,59.08
2023-01-01T15:40:55.149Z,59.25
2023-01-01T15:46:26.114Z,59.15
2023-01-01T15:51:58.895Z,59.29
2023-01-01T15:57:22.873Z,59.23
2023-01-01T16:02:43.866Z,59.23
2023-01-01T16:08:05.704Z,59.46
2023-01-01T16:13:29.202Z,59.42
2023-01-01T16:18:50.252Z,59.49
2023-01-01T16:24:14.985Z,59.49
2023-01-01T16:29:36.081Z,59.44
2023-01-01T16:34:57.158Z,59.35
2023-01-01T16:40:17.852Z,59.67
2023-01-01T16:45:38.580Z,59.44
2023-01-01T16:50:59.305Z,59.63
2023-01-01T16:56:20.217Z,59.43
2023-01-01T17:01:41.397Z,58.94
2023-01-01T17:07:02.360Z,58.97
2023-01-01T17:12:23.054Z,59.86
2023-01-01T17:17:43.808Z,59.55
2023-01-01T17:23:04.635Z,59.60
2023-01-01T17:28:25.337Z,59.68
2023-01-01T17:33:46.844Z,59.58
2023-01-01T17:39:10.151Z,60.14
2023-01-01T17:44:32.286Z,59.99
2023-01-01T17:49:52.987Z,60.04
2023-01-01T17:55:13.838Z,59.94
2023-01-01T18:00:34.709Z,60.33
2023-01-01T18:05:56.557Z,60.08
2023-01-01T18:11:17.769Z,60.07
2023-01-01T18:16:40.848Z,59.93
2023-01-01T18:22:02.913Z,59.69
2023-01-01T18:27:23.941Z,60.01
2023-01-01T18:32:44.652Z,59.99
2023-01-01T18:38:05.575Z,60.13
2023-01-01T18:43:26.249Z,60.15
2023-01-01T18:48:46.969Z,60.21
2023-01-01T18:54:14.051Z,60.03
2023-01-01T18:59:36.806Z,60.54
2023-01-01T19:05:17.392Z,60.61
2023-01-01T19:10:39.875Z,60.41
2023-01-01T19:16:12.859Z,60.09
2023-01-01T19:21:33.634Z,60.22
2023-01-01T19:27:05.137Z,60.21
2023-01-01T19:32:25.862Z,60.09
2023-01-01T19:37:46.756Z,60.25
2023-01-01T19:43:07.753Z,60.62
2023-01-01T19:48:30.348Z,61.06
2023-01-01T19:53:53.010Z,60.95
2023-01-01T19:59:18.347Z,61.11
2023-01-01T20:04:40.226Z,61.29
2023-01-01T20:10:01.373Z,60.88
2023-01-01T20:15:22.954Z,60.83
2023-01-01T20:21:02.304Z,60.94
2023-01-01T20:26:26.073Z,60.84
2023-01-01T20:31:48.854Z,60.84
2023-01-01T20:37:28.301Z,61.14
2023-01-01T20:42:49.477Z,60.97
2023-01-01T20:48:14.713Z,60.89
2023-01-01T20:53:38.596Z,61.01
2023-01-01T20:59:07.670Z,60.94
2023-01-01T21:04:39.822Z,61.35
2023-01-01T21:10:01.329Z,61.45
2023-01-01T21:15:22.065Z,61.71
2023-01-01T21:20:47.546Z,61.38
2023-01-01T21:26:16.177Z,61.36
2023-01-01T21:31:39.286Z,61.52
2023-01-01T21:37:42.761Z,61.60
2023-01-01T21:43:23.863Z,61.51
2023-01-01T21:48:56.781Z,61.66
2023-01-01T21:54:22.722Z,61.56
2023-01-01T21:59:46.373Z,61.94
2023-01-01T22:05:42.505Z,61.75
2023-01-01T22:11:15.747Z,61.57
2023-01-01T22:16:36.535Z,61.76
2023-01-01T22:21:57.159Z,61.57
2023-01-01T22:27:27.908Z,61.66
2023-01-01T22:32:52.615Z,61.56
2023-01-01T22:38:19.706Z,61.67
2023-01-01T22:43:43.172Z,62.15
2023-01-01T22:49:32.246Z,61.95
2023-01-01T22:54:53.005Z,62.21
2023-01-01T23:00:16.016Z,62.31
2023-01-01T23:05:37.054Z,62.15
2023-01-01T23:10:59.748Z,62.58
2023-01-01T23:16:20.955Z,62.38
2023-01-01T23:21:42.416Z,62.02
2023-01-01T23:27:03.902Z,62.53
2023-01-01T23:32:24.914Z,62.79
2023-01-01T23:37:45.641Z,63.18
2023-01-01T23:43:06.353Z,62.81
2023-01-01T23:48:28.457Z,62.95
2023-01-01T23:53:49.280Z,62.85
2023-01-01T23:59:11.942Z,63.48
